Kumamoto Airport
RJFT : now visible

Airfield :











YOU CAN JOIN US ON...

 
LOGIN :

Register | Disclaimer

   EN    FR    IT 

 









Legend :    VFR   Marginal VFR   IFR   Intensive IFR   Very Intensive IFR
Visi :
Ceiling :
>= 8 km
>= 3000ft
5 to 8 km
1000 to 3000 ft
1500m to 5 km
500 to 1000 ft
800 to 1500m
200 to 500 ft
< 800m
< 200 ft
Symbols :   Thunderstorms  Fog  Heavy snow  Heavy precipitations  Wind > 20 kt






- Airport Elevation : 642 ft
- IATA code : KMJ


RJFT - Kumamoto

EXPIRED METARs :
  • 271212Z 22003KT 130V260 3000 -SHRA BR BCFG FEW001 BKN002 BKN003 22/21 Q1004 RMK 1ST001 6ST002 7ST003 A2967 FG ALL QUAD
  • 271200Z 23004KT 190V260 2000 -SHRA BR BCFG FEW001 BKN002 BKN003 22/21 Q1005
  • 271150Z 20003KT 160V240 2000 -SHRA BR BCFG FEW001 BKN002 BKN003 22/21 Q1005 RMK 2ST001 6ST002 7ST003 A2968 FG ALL QUAD
  • 271137Z 19003KT 160V240 2500 -SHRA BR BCFG FEW001 BKN002 BKN003 22/22 Q1005 RMK 2ST001 6ST002 7ST003 A2968 FG ALL QUAD
  • 271117Z 25006KT 3000 -SHRA BR BCFG FEW001 BKN003 BKN006 22/21 Q1005 RMK 2ST001 6ST003 7ST006 A2968 FG ALL QUAD
  • 271100Z 23004KT 6000 -SHRA FEW005 BKN006 BKN009 22/22 Q1005
  • 271000Z 22006KT 190V250 8000 FEW005 BKN007 BKN010 23/22 Q1004

TAF TAF RJFT
Valid from the 27 at 12:00 until the 28 at 18:00 UTC


271107Z 2712/2818 27005KT 6000 -SHRA FEW005 SCT008 BKN015
TEMPO 2712/2714 1500 -SHRA BR FEW001 BKN003 BKN008
TEMPO 2714/2723 0800 SHRA FG FEW001 BKN003 BKN008
BECMG 2722/2800 36008KT
TEMPO 2723/2803 3000 -SHRA BR FEW003 BKN005 BKN008
RJJJ FIR / Asia



MET'MAP, your aeronautical weather chart ! - Copyright ORBIFLY December 2007 - Disclaimer

ORBIFLY MET'MAP TEAM :

Programming & Development : Alexandra Zaïnal
Original concept : Baudouin d'Aumeries
Technical & hardware support : Manuel Goepfert
Assistance : Marc-Olivier Méhu




SOURCES & CREDITS :

   NOAA       Earth
Advisory